PWSweather.com
Personal Weather Stations
Station Observations
WESTSLOPE
St. JohnGeorge Park, Portland, OR 97203

St. JohnGeorge ParkPortland, OR 97203

Lat: 45.5978178, Lon: -122.7322011

Elevation: 81

Station Type: Davis VantageVue

http://www.weatherlink.com/user/ltr

Latest ConditionsUpdated 11:30:38 PM PST Wednesday, Jan 17, 2018
Currently Today's Max Today's Min Today's Average
Temperature 52.4°F11.3°C 55.2°F12.9°C 46.4°F8.0°C 49.9°F9.9°C
Dew Point 50.0°F10.0°C 51.0°F10.6°C 42.0°F5.6°C 44.6°F7.0°C
Winds 7.0 mph SE11.3 kmh SE 8.0 mph SW12.9 kmh SW - 1.8 mph 2.9 kmh
Wind Gusts 12.0 mph19.3 kmh 14.0 mph22.5 kmh - -
Humidity 90% 97% 68% 82%
Pressure 29.84 in1010.5 mb 30.10 in1019.3 mb 29.77 in1008.1 mb -
Precipitation - 0.58 in14.7 mm - -
Hour Temp Dew Point Humidity Winds Wind Gusts Pressure Precip Precip Rate Daily Precip Total
11:30 PM 52.4°F11.3°C 50.0°F10.0°C 90% 7.0 mph SE11.3 kmh SE 12.0 mph19.3 kmh 29.84 in1010.5 mb 0.00 in0.0 mm 0.00 in0.0 mm 0.58 in14.7 mm
11:25 PM 52.3°F11.3°C 50.0°F10.0°C 90% 7.0 mph SW11.3 kmh SW 12.0 mph19.3 kmh 29.84 in1010.5 mb 0.00 in0.0 mm 0.00 in0.0 mm 0.58 in14.7 mm
11:20 PM 52.4°F11.3°C 50.0°F10.0°C 90% 5.0 mph S8.0 kmh S 14.0 mph22.5 kmh 29.84 in1010.5 mb 0.00 in0.0 mm 0.00 in0.0 mm 0.58 in14.7 mm
11:15 PM 52.3°F11.3°C 50.0°F10.0°C 90% 4.0 mph SSE6.4 kmh SSE 14.0 mph22.5 kmh 29.84 in1010.5 mb 0.00 in0.0 mm 0.00 in0.0 mm 0.58 in14.7 mm
11:10 PM 52.2°F11.2°C 50.0°F10.0°C 91% 6.0 mph SE9.7 kmh SE 12.0 mph19.3 kmh 29.84 in1010.5 mb 0.00 in0.0 mm 0.00 in0.0 mm 0.58 in14.7 mm
11:05 PM 52.2°F11.2°C 50.0°F10.0°C 91% 3.0 mph SE4.8 kmh SE 12.0 mph19.3 kmh 29.84 in1010.5 mb 0.00 in0.0 mm 0.00 in0.0 mm 0.58 in14.7 mm
11:00 PM 52.2°F11.2°C 50.0°F10.0°C 92% 4.0 mph SE6.4 kmh SE 12.0 mph19.3 kmh 29.84 in1010.5 mb 0.00 in0.0 mm 0.00 in0.0 mm 0.58 in14.7 mm
10:55 PM 52.1°F11.2°C 50.0°F10.0°C 91% 4.0 mph SE6.4 kmh SE 9.0 mph14.5 kmh 29.84 in1010.5 mb 0.00 in0.0 mm 0.00 in0.0 mm 0.58 in14.7 mm
10:50 PM 52.1°F11.2°C 50.0°F10.0°C 91% 2.0 mph S3.2 kmh S 11.0 mph17.7 kmh 29.83 in1010.2 mb 0.00 in0.0 mm 0.00 in0.0 mm 0.58 in14.7 mm
10:45 PM 52.2°F11.2°C 50.0°F10.0°C 91% 3.0 mph SE4.8 kmh SE 11.0 mph17.7 kmh 29.83 in1010.2 mb 0.00 in0.0 mm 0.00 in0.0 mm 0.58 in14.7 mm
10:40 PM 52.2°F11.2°C 50.0°F10.0°C 91% 6.0 mph SSE9.7 kmh SSE 10.0 mph16.1 kmh 29.83 in1010.2 mb 0.01 in0.3 mm 0.00 in0.0 mm 0.58 in14.7 mm
10:35 PM 52.0°F11.1°C 50.0°F10.0°C 91% 8.0 mph S12.9 kmh S 10.0 mph16.1 kmh 29.83 in1010.2 mb 0.03 in0.8 mm 0.00 in0.0 mm 0.58 in14.7 mm
10:30 PM 51.8°F11.0°C 50.0°F10.0°C 92% 4.0 mph SSW6.4 kmh SSW 6.0 mph9.7 kmh 29.83 in1010.2 mb 0.04 in1.0 mm 0.00 in0.0 mm 0.58 in14.7 mm
10:25 PM 51.7°F10.9°C 50.0°F10.0°C 92% 3.0 mph SSE4.8 kmh SSE 6.0 mph9.7 kmh 29.83 in1010.2 mb 0.04 in1.0 mm 0.00 in0.0 mm 0.58 in14.7 mm
10:20 PM 51.7°F10.9°C 50.0°F10.0°C 93% 2.0 mph SSE3.2 kmh SSE 6.0 mph9.7 kmh 29.83 in1010.2 mb 0.04 in1.0 mm 0.00 in0.0 mm 0.58 in14.7 mm
10:15 PM 51.6°F10.9°C 50.0°F10.0°C 94% 3.0 mph S4.8 kmh S 10.0 mph16.1 kmh 29.83 in1010.2 mb 0.04 in1.0 mm 0.00 in0.0 mm 0.58 in14.7 mm
10:10 PM 51.4°F10.8°C 50.0°F10.0°C 94% 3.0 mph SE4.8 kmh SE 10.0 mph16.1 kmh 29.82 in1009.8 mb 0.04 in1.0 mm 0.00 in0.0 mm 0.58 in14.7 mm
10:05 PM 51.0°F10.6°C 50.0°F10.0°C 96% 5.0 mph SSE8.0 kmh SSE 8.0 mph12.9 kmh 29.82 in1009.8 mb 0.04 in1.0 mm 0.00 in0.0 mm 0.58 in14.7 mm
10:00 PM 50.8°F10.4°C 50.0°F10.0°C 97% 2.0 mph WSW3.2 kmh WSW 6.0 mph9.7 kmh 29.82 in1009.8 mb 0.04 in1.0 mm 0.00 in0.0 mm 0.58 in14.7 mm
09:55 PM 50.5°F10.3°C 50.0°F10.0°C 97% 3.0 mph SSE4.8 kmh SSE 6.0 mph9.7 kmh 29.82 in1009.8 mb 0.04 in1.0 mm 0.00 in0.0 mm 0.58 in14.7 mm
09:50 PM 49.9°F9.9°C 49.0°F9.4°C 97% 1.0 mph SSE1.6 kmh SSE 5.0 mph8.0 kmh 29.82 in1009.8 mb 0.04 in1.0 mm 0.12 in3.0 mm 0.58 in14.7 mm
09:45 PM 48.9°F9.4°C 48.0°F8.9°C 96% 2.0 mph WSW3.2 kmh WSW 2.0 mph3.2 kmh 29.82 in1009.8 mb 0.03 in0.8 mm 0.00 in0.0 mm 0.57 in14.5 mm
09:40 PM 48.7°F9.3°C 48.0°F8.9°C 96% Calm Calm 3.0 mph4.8 kmh 29.82 in1009.8 mb 0.04 in1.0 mm 0.24 in6.1 mm 0.57 in14.5 mm
09:35 PM 48.7°F9.3°C 48.0°F8.9°C 96% 1.0 mph SE1.6 kmh SE 3.0 mph4.8 kmh 29.82 in1009.8 mb 0.02 in0.5 mm 0.12 in3.0 mm 0.55 in14.0 mm
09:30 PM 48.6°F9.2°C 48.0°F8.9°C 96% Calm Calm 2.0 mph3.2 kmh 29.83 in1010.2 mb 0.01 in0.3 mm 0.00 in0.0 mm 0.54 in13.7 mm
09:25 PM 48.5°F9.2°C 48.0°F8.9°C 96% Calm Calm 3.0 mph4.8 kmh 29.83 in1010.2 mb 0.03 in0.8 mm 0.00 in0.0 mm 0.54 in13.7 mm
09:20 PM 48.5°F9.2°C 48.0°F8.9°C 96% Calm Calm 3.0 mph4.8 kmh 29.82 in1009.8 mb 0.04 in1.0 mm 0.00 in0.0 mm 0.54 in13.7 mm
09:15 PM 48.7°F9.3°C 47.0°F8.3°C 95% Calm Calm 2.0 mph3.2 kmh 29.82 in1009.8 mb 0.04 in1.0 mm 0.00 in0.0 mm 0.54 in13.7 mm
09:10 PM 48.9°F9.4°C 48.0°F8.9°C 95% 1.0 mph E1.6 kmh E 2.0 mph3.2 kmh 29.83 in1010.2 mb 0.04 in1.0 mm 0.00 in0.0 mm 0.54 in13.7 mm
09:05 PM 49.2°F9.6°C 48.0°F8.9°C 95% Calm Calm 2.0 mph3.2 kmh 29.82 in1009.8 mb 0.05 in1.3 mm 0.00 in0.0 mm 0.54 in13.7 mm
09:00 PM 49.7°F9.8°C 48.0°F8.9°C 95% 1.0 mph ESE1.6 kmh ESE 4.0 mph6.4 kmh 29.82 in1009.8 mb 0.05 in1.3 mm 0.00 in0.0 mm 0.54 in13.7 mm
08:55 PM 50.4°F10.2°C 49.0°F9.4°C 95% 1.0 mph ESE1.6 kmh ESE 4.0 mph6.4 kmh 29.82 in1009.8 mb 0.05 in1.3 mm 0.00 in0.0 mm 0.54 in13.7 mm
08:50 PM 51.4°F10.8°C 51.0°F10.6°C 97% 1.0 mph E1.6 kmh E 6.0 mph9.7 kmh 29.81 in1009.5 mb 0.05 in1.3 mm 0.00 in0.0 mm 0.54 in13.7 mm
08:45 PM 51.1°F10.6°C 50.0°F10.0°C 97% 2.0 mph S3.2 kmh S 6.0 mph9.7 kmh 29.82 in1009.8 mb 0.05 in1.3 mm 0.12 in3.0 mm 0.54 in13.7 mm
08:40 PM 50.6°F10.3°C 50.0°F10.0°C 97% Calm Calm 3.0 mph4.8 kmh 29.82 in1009.8 mb 0.04 in1.0 mm 0.00 in0.0 mm 0.53 in13.5 mm
08:35 PM 50.1°F10.1°C 49.0°F9.4°C 97% Calm Calm 4.0 mph6.4 kmh 29.81 in1009.5 mb 0.04 in1.0 mm 0.00 in0.0 mm 0.53 in13.5 mm
08:30 PM 49.4°F9.7°C 49.0°F9.4°C 97% Calm Calm 4.0 mph6.4 kmh 29.81 in1009.5 mb 0.05 in1.3 mm 0.24 in6.1 mm 0.53 in13.5 mm
08:25 PM 48.5°F9.2°C 48.0°F8.9°C 97% 1.0 mph SE1.6 kmh SE 4.0 mph6.4 kmh 29.81 in1009.5 mb 0.03 in0.8 mm 0.00 in0.0 mm 0.51 in13.0 mm
08:20 PM 47.9°F8.8°C 47.0°F8.3°C 96% 3.0 mph E4.8 kmh E 5.0 mph8.0 kmh 29.82 in1009.8 mb 0.04 in1.0 mm 0.00 in0.0 mm 0.50 in12.7 mm
08:15 PM 47.9°F8.8°C 47.0°F8.3°C 96% 1.0 mph E1.6 kmh E 5.0 mph8.0 kmh 29.81 in1009.5 mb 0.07 in1.8 mm 0.00 in0.0 mm 0.50 in12.7 mm
08:10 PM 47.8°F8.8°C 47.0°F8.3°C 96% 2.0 mph E3.2 kmh E 3.0 mph4.8 kmh 29.81 in1009.5 mb 0.12 in3.0 mm 0.00 in0.0 mm 0.50 in12.7 mm
08:05 PM 47.8°F8.8°C 47.0°F8.3°C 96% 1.0 mph ESE1.6 kmh ESE 3.0 mph4.8 kmh 29.82 in1009.8 mb 0.13 in3.3 mm 0.00 in0.0 mm 0.49 in12.4 mm
08:00 PM 47.8°F8.8°C 47.0°F8.3°C 96% 1.0 mph E1.6 kmh E 2.0 mph3.2 kmh 29.82 in1009.8 mb 0.15 in3.8 mm 0.00 in0.0 mm 0.49 in12.4 mm
07:55 PM 47.7°F8.7°C 47.0°F8.3°C 96% Calm Calm 4.0 mph6.4 kmh 29.82 in1009.8 mb 0.16 in4.1 mm 0.00 in0.0 mm 0.49 in12.4 mm
07:50 PM 47.8°F8.8°C 47.0°F8.3°C 95% 1.0 mph E1.6 kmh E 4.0 mph6.4 kmh 29.82 in1009.8 mb 0.17 in4.3 mm 0.00 in0.0 mm 0.49 in12.4 mm
07:45 PM 47.9°F8.8°C 47.0°F8.3°C 95% 1.0 mph E1.6 kmh E 3.0 mph4.8 kmh 29.82 in1009.8 mb 0.18 in4.6 mm 0.00 in0.0 mm 0.49 in12.4 mm
07:40 PM 48.0°F8.9°C 47.0°F8.3°C 95% Calm Calm 2.0 mph3.2 kmh 29.82 in1009.8 mb 0.18 in4.6 mm 0.00 in0.0 mm 0.49 in12.4 mm
07:35 PM 48.0°F8.9°C 47.0°F8.3°C 95% Calm Calm 2.0 mph3.2 kmh 29.82 in1009.8 mb 0.19 in4.8 mm 0.00 in0.0 mm 0.49 in12.4 mm
07:30 PM 48.2°F9.0°C 47.0°F8.3°C 95% 1.0 mph E1.6 kmh E 3.0 mph4.8 kmh 29.83 in1010.2 mb 0.20 in5.1 mm 0.00 in0.0 mm 0.48 in12.2 mm
07:25 PM 48.5°F9.2°C 47.0°F8.3°C 95% Calm Calm 3.0 mph4.8 kmh 29.82 in1009.8 mb 0.22 in5.6 mm 0.12 in3.0 mm 0.48 in12.2 mm
07:20 PM 48.7°F9.3°C 48.0°F8.9°C 96% 1.0 mph ESE1.6 kmh ESE 2.0 mph3.2 kmh 29.82 in1009.8 mb 0.21 in5.3 mm 0.36 in9.1 mm 0.46 in11.7 mm
07:15 PM 48.6°F9.2°C 48.0°F8.9°C 96% 1.0 mph E1.6 kmh E 2.0 mph3.2 kmh 29.82 in1009.8 mb 0.18 in4.6 mm 0.60 in15.2 mm 0.43 in10.9 mm
07:10 PM 48.4°F9.1°C 47.0°F8.3°C 96% Calm Calm 1.0 mph1.6 kmh 29.82 in1009.8 mb 0.13 in3.3 mm 0.36 in9.1 mm 0.38 in9.7 mm
07:05 PM 48.2°F9.0°C 47.0°F8.3°C 95% Calm Calm 2.0 mph3.2 kmh 29.82 in1009.8 mb 0.10 in2.5 mm 0.00 in0.0 mm 0.35 in8.9 mm
07:00 PM 48.1°F8.9°C 47.0°F8.3°C 95% Calm Calm 2.0 mph3.2 kmh 29.81 in1009.5 mb 0.10 in2.5 mm 0.00 in0.0 mm 0.34 in8.6 mm
06:55 PM 48.0°F8.9°C 47.0°F8.3°C 95% Calm Calm 2.0 mph3.2 kmh 29.81 in1009.5 mb 0.11 in2.8 mm 0.00 in0.0 mm 0.33 in8.4 mm
06:50 PM 48.1°F8.9°C 47.0°F8.3°C 95% Calm Calm 4.0 mph6.4 kmh 29.81 in1009.5 mb 0.11 in2.8 mm 0.00 in0.0 mm 0.32 in8.1 mm
06:45 PM 48.2°F9.0°C 47.0°F8.3°C 95% 2.0 mph ENE3.2 kmh ENE 4.0 mph6.4 kmh 29.81 in1009.5 mb 0.12 in3.0 mm 0.00 in0.0 mm 0.31 in7.9 mm
06:40 PM 48.4°F9.1°C 47.0°F8.3°C 95% 1.0 mph ESE1.6 kmh ESE 4.0 mph6.4 kmh 29.81 in1009.5 mb 0.13 in3.3 mm 0.12 in3.0 mm 0.31 in7.9 mm
06:35 PM 48.4°F9.1°C 47.0°F8.3°C 95% 1.0 mph SE1.6 kmh SE 3.0 mph4.8 kmh 29.80 in1009.1 mb 0.12 in3.0 mm 0.24 in6.1 mm 0.30 in7.6 mm
06:30 PM 48.3°F9.1°C 47.0°F8.3°C 95% 1.0 mph E1.6 kmh E 3.0 mph4.8 kmh 29.81 in1009.5 mb 0.10 in2.5 mm 0.12 in3.0 mm 0.28 in7.1 mm
06:25 PM 48.2°F9.0°C 47.0°F8.3°C 95% 2.0 mph E3.2 kmh E 5.0 mph8.0 kmh 29.81 in1009.5 mb 0.09 in2.3 mm 0.00 in0.0 mm 0.26 in6.6 mm
06:20 PM 48.2°F9.0°C 47.0°F8.3°C 95% 1.0 mph E1.6 kmh E 5.0 mph8.0 kmh 29.80 in1009.1 mb 0.09 in2.3 mm 0.00 in0.0 mm 0.25 in6.4 mm
06:15 PM 48.2°F9.0°C 47.0°F8.3°C 95% 1.0 mph ESE1.6 kmh ESE 6.0 mph9.7 kmh 29.81 in1009.5 mb 0.10 in2.5 mm 0.00 in0.0 mm 0.25 in6.4 mm
06:10 PM 48.1°F8.9°C 47.0°F8.3°C 95% 1.0 mph SE1.6 kmh SE 6.0 mph9.7 kmh 29.81 in1009.5 mb 0.10 in2.5 mm 0.00 in0.0 mm 0.25 in6.4 mm
06:05 PM 48.0°F8.9°C 46.0°F7.8°C 94% Calm Calm 4.0 mph6.4 kmh 29.80 in1009.1 mb 0.11 in2.8 mm 0.00 in0.0 mm 0.25 in6.4 mm
06:00 PM 48.0°F8.9°C 46.0°F7.8°C 94% 2.0 mph E3.2 kmh E 5.0 mph8.0 kmh 29.80 in1009.1 mb 0.11 in2.8 mm 0.01 in0.3 mm 0.24 in6.1 mm
05:55 PM 48.0°F8.9°C 46.0°F7.8°C 94% 2.0 mph SSE3.2 kmh SSE 5.0 mph8.0 kmh 29.81 in1009.5 mb 0.10 in2.5 mm 0.12 in3.0 mm 0.22 in5.6 mm
05:50 PM 48.1°F8.9°C 47.0°F8.3°C 94% 3.0 mph E4.8 kmh E 6.0 mph9.7 kmh 29.82 in1009.8 mb 0.09 in2.3 mm 0.00 in0.0 mm 0.20 in5.1 mm
05:45 PM 48.1°F8.9°C 46.0°F7.8°C 93% 2.0 mph ESE3.2 kmh ESE 6.0 mph9.7 kmh 29.82 in1009.8 mb 0.09 in2.3 mm 0.00 in0.0 mm 0.19 in4.8 mm
05:40 PM 47.9°F8.8°C 46.0°F7.8°C 93% Calm Calm 4.0 mph6.4 kmh 29.82 in1009.8 mb 0.09 in2.3 mm 0.00 in0.0 mm 0.18 in4.6 mm
05:35 PM 47.9°F8.8°C 46.0°F7.8°C 93% 1.0 mph E1.6 kmh E 3.0 mph4.8 kmh 29.81 in1009.5 mb 0.11 in2.8 mm 0.00 in0.0 mm 0.18 in4.6 mm
05:30 PM 47.9°F8.8°C 46.0°F7.8°C 92% Calm Calm 6.0 mph9.7 kmh 29.81 in1009.5 mb 0.11 in2.8 mm 0.00 in0.0 mm 0.17 in4.3 mm
05:25 PM 47.9°F8.8°C 46.0°F7.8°C 92% 2.0 mph E3.2 kmh E 6.0 mph9.7 kmh 29.81 in1009.5 mb 0.11 in2.8 mm 0.00 in0.0 mm 0.17 in4.3 mm
05:20 PM 47.9°F8.8°C 46.0°F7.8°C 92% 2.0 mph SE3.2 kmh SE 4.0 mph6.4 kmh 29.81 in1009.5 mb 0.11 in2.8 mm 0.12 in3.0 mm 0.16 in4.1 mm
05:15 PM 48.0°F8.9°C 46.0°F7.8°C 91% 2.0 mph E3.2 kmh E 4.0 mph6.4 kmh 29.81 in1009.5 mb 0.10 in2.5 mm 0.00 in0.0 mm 0.15 in3.8 mm
05:10 PM 48.2°F9.0°C 46.0°F7.8°C 91% 2.0 mph E3.2 kmh E 4.0 mph6.4 kmh 29.81 in1009.5 mb 0.11 in2.8 mm 0.00 in0.0 mm 0.15 in3.8 mm
05:05 PM 48.4°F9.1°C 46.0°F7.8°C 91% 1.0 mph E1.6 kmh E 4.0 mph6.4 kmh 29.82 in1009.8 mb 0.11 in2.8 mm 0.24 in6.1 mm 0.14 in3.6 mm
05:00 PM 48.5°F9.2°C 46.0°F7.8°C 91% 2.0 mph E3.2 kmh E 4.0 mph6.4 kmh 29.81 in1009.5 mb 0.09 in2.3 mm 0.00 in0.0 mm 0.12 in3.0 mm
04:55 PM 48.8°F9.3°C 46.0°F7.8°C 90% 1.0 mph E1.6 kmh E 2.0 mph3.2 kmh 29.81 in1009.5 mb 0.10 in2.5 mm 0.12 in3.0 mm 0.12 in3.0 mm
04:50 PM 48.9°F9.4°C 46.0°F7.8°C 89% Calm Calm 2.0 mph3.2 kmh 29.81 in1009.5 mb 0.09 in2.3 mm 0.00 in0.0 mm 0.11 in2.8 mm
04:45 PM 49.3°F9.6°C 46.0°F7.8°C 89% Calm Calm -- 29.82 in1009.8 mb 0.09 in2.3 mm 0.12 in3.0 mm 0.10 in2.5 mm
04:40 PM 49.4°F9.7°C 46.0°F7.8°C 88% Calm Calm -- 29.82 in1009.8 mb 0.08 in2.0 mm 0.24 in6.1 mm 0.09 in2.3 mm
04:35 PM 49.7°F9.8°C 46.0°F7.8°C 88% Calm Calm -- 29.81 in1009.5 mb 0.06 in1.5 mm 0.12 in3.0 mm 0.07 in1.8 mm
04:30 PM 49.9°F9.9°C 46.0°F7.8°C 87% Calm Calm 1.0 mph1.6 kmh 29.80 in1009.1 mb 0.05 in1.3 mm 0.00 in0.0 mm 0.06 in1.5 mm
04:25 PM 49.9°F9.9°C 46.0°F7.8°C 87% Calm Calm 1.0 mph1.6 kmh 29.81 in1009.5 mb 0.05 in1.3 mm 0.12 in3.0 mm 0.06 in1.5 mm
04:20 PM 50.0°F10.0°C 46.0°F7.8°C 86% Calm Calm 2.0 mph3.2 kmh 29.81 in1009.5 mb 0.04 in1.0 mm 0.00 in0.0 mm 0.05 in1.3 mm
04:15 PM 50.1°F10.1°C 46.0°F7.8°C 85% Calm Calm 2.0 mph3.2 kmh 29.80 in1009.1 mb 0.04 in1.0 mm 0.12 in3.0 mm 0.05 in1.3 mm
04:10 PM 50.8°F10.4°C 46.0°F7.8°C 83% Calm Calm 2.0 mph3.2 kmh 29.79 in1008.8 mb 0.03 in0.8 mm 0.12 in3.0 mm 0.04 in1.0 mm
04:05 PM 50.9°F10.5°C 45.0°F7.2°C 81% Calm Calm 4.0 mph6.4 kmh 29.80 in1009.1 mb 0.02 in0.5 mm 0.00 in0.0 mm 0.03 in0.8 mm
04:00 PM 51.1°F10.6°C 45.0°F7.2°C 80% Calm Calm 4.0 mph6.4 kmh 29.79 in1008.8 mb 0.02 in0.5 mm 0.01 in0.3 mm 0.03 in0.8 mm
03:55 PM 51.5°F10.8°C 46.0°F7.8°C 80% 1.0 mph SE1.6 kmh SE 4.0 mph6.4 kmh 29.80 in1009.1 mb 0.01 in0.3 mm 0.00 in0.0 mm 0.02 in0.5 mm
03:50 PM 51.8°F11.0°C 45.0°F7.2°C 78% 2.0 mph S3.2 kmh S 7.0 mph11.3 kmh 29.79 in1008.8 mb 0.01 in0.3 mm 0.12 in3.0 mm 0.02 in0.5 mm
03:45 PM 52.0°F11.1°C 45.0°F7.2°C 76% 2.0 mph S3.2 kmh S 7.0 mph11.3 kmh 29.80 in1009.1 mb 0.00 in0.0 mm 0.00 in0.0 mm 0.01 in0.3 mm
03:40 PM 52.4°F11.3°C 45.0°F7.2°C 76% Calm Calm 5.0 mph8.0 kmh 29.79 in1008.8 mb 0.00 in0.0 mm 0.00 in0.0 mm 0.01 in0.3 mm
03:35 PM 52.8°F11.6°C 44.0°F6.7°C 73% Calm Calm 5.0 mph8.0 kmh 29.78 in1008.5 mb 0.00 in0.0 mm 0.00 in0.0 mm 0.01 in0.3 mm
03:30 PM 53.1°F11.7°C 44.0°F6.7°C 72% 1.0 mph SE1.6 kmh SE 4.0 mph6.4 kmh 29.79 in1008.8 mb 0.00 in0.0 mm 0.00 in0.0 mm 0.01 in0.3 mm
03:25 PM 53.3°F11.8°C 44.0°F6.7°C 71% 3.0 mph E4.8 kmh E 5.0 mph8.0 kmh 29.79 in1008.8 mb 0.00 in0.0 mm 0.00 in0.0 mm 0.01 in0.3 mm
03:20 PM 53.3°F11.8°C 44.0°F6.7°C 70% Calm Calm 5.0 mph8.0 kmh 29.78 in1008.5 mb 0.00 in0.0 mm 0.00 in0.0 mm 0.01 in0.3 mm
03:15 PM 53.2°F11.8°C 44.0°F6.7°C 70% 1.0 mph SE1.6 kmh SE 5.0 mph8.0 kmh 29.79 in1008.8 mb 0.00 in0.0 mm 0.00 in0.0 mm 0.01 in0.3 mm
03:10 PM 53.3°F11.8°C 44.0°F6.7°C 70% 2.0 mph E3.2 kmh E 3.0 mph4.8 kmh 29.78 in1008.5 mb 0.00 in0.0 mm 0.00 in0.0 mm 0.01 in0.3 mm
03:05 PM 53.4°F11.9°C 44.0°F6.7°C 70% 1.0 mph ESE1.6 kmh ESE 7.0 mph11.3 kmh 29.78 in1008.5 mb 0.00 in0.0 mm 0.00 in0.0 mm 0.01 in0.3 mm
03:00 PM 53.5°F11.9°C 44.0°F6.7°C 69% 3.0 mph E4.8 kmh E 10.0 mph16.1 kmh 29.77 in1008.1 mb 0.00 in0.0 mm 0.00 in0.0 mm 0.01 in0.3 mm
02:55 PM 53.7°F12.1°C 44.0°F6.7°C 69% 5.0 mph ENE8.0 kmh ENE 10.0 mph16.1 kmh 29.78 in1008.5 mb 0.00 in0.0 mm 0.00 in0.0 mm 0.01 in0.3 mm
02:50 PM 53.7°F12.1°C 44.0°F6.7°C 70% 3.0 mph E4.8 kmh E 5.0 mph8.0 kmh 29.78 in1008.5 mb 0.00 in0.0 mm 0.00 in0.0 mm 0.01 in0.3 mm
02:45 PM 53.8°F12.1°C 44.0°F6.7°C 70% 3.0 mph ENE4.8 kmh ENE 7.0 mph11.3 kmh 29.78 in1008.5 mb 0.00 in0.0 mm 0.00 in0.0 mm 0.01 in0.3 mm
02:40 PM 53.9°F12.2°C 44.0°F6.7°C 69% 2.0 mph E3.2 kmh E 7.0 mph11.3 kmh 29.79 in1008.8 mb 0.00 in0.0 mm 0.00 in0.0 mm 0.01 in0.3 mm
02:35 PM 54.1°F12.3°C 44.0°F6.7°C 68% 2.0 mph E3.2 kmh E 6.0 mph9.7 kmh 29.79 in1008.8 mb 0.00 in0.0 mm 0.00 in0.0 mm 0.01 in0.3 mm
02:30 PM 54.3°F12.4°C 44.0°F6.7°C 69% 2.0 mph E3.2 kmh E 5.0 mph8.0 kmh 29.79 in1008.8 mb 0.00 in0.0 mm 0.00 in0.0 mm 0.01 in0.3 mm
02:25 PM 54.6°F12.6°C 44.0°F6.7°C 68% 2.0 mph ESE3.2 kmh ESE 6.0 mph9.7 kmh 29.79 in1008.8 mb 0.00 in0.0 mm 0.00 in0.0 mm 0.01 in0.3 mm
02:20 PM 54.7°F12.6°C 44.0°F6.7°C 68% 2.0 mph E3.2 kmh E 6.0 mph9.7 kmh 29.78 in1008.5 mb 0.00 in0.0 mm 0.00 in0.0 mm 0.01 in0.3 mm
02:15 PM 54.8°F12.7°C 44.0°F6.7°C 68% Calm Calm 6.0 mph9.7 kmh 29.79 in1008.8 mb 0.00 in0.0 mm 0.00 in0.0 mm 0.01 in0.3 mm
02:10 PM 55.0°F12.8°C 45.0°F7.2°C 68% 2.0 mph E3.2 kmh E 6.0 mph9.7 kmh 29.78 in1008.5 mb 0.00 in0.0 mm 0.00 in0.0 mm 0.01 in0.3 mm
02:05 PM 54.9°F12.7°C 45.0°F7.2°C 69% 2.0 mph ESE3.2 kmh ESE 5.0 mph8.0 kmh 29.79 in1008.8 mb 0.00 in0.0 mm 0.00 in0.0 mm 0.01 in0.3 mm
02:00 PM 55.1°F12.8°C 45.0°F7.2°C 69% 2.0 mph E3.2 kmh E 5.0 mph8.0 kmh 29.79 in1008.8 mb 0.00 in0.0 mm 0.00 in0.0 mm 0.01 in0.3 mm
01:55 PM 55.2°F12.9°C 45.0°F7.2°C 69% Calm Calm 5.0 mph8.0 kmh 29.79 in1008.8 mb 0.00 in0.0 mm 0.00 in0.0 mm 0.01 in0.3 mm
01:50 PM 55.1°F12.8°C 45.0°F7.2°C 68% 2.0 mph SE3.2 kmh SE 4.0 mph6.4 kmh 29.80 in1009.1 mb 0.00 in0.0 mm 0.00 in0.0 mm 0.01 in0.3 mm
01:45 PM 54.9°F12.7°C 44.0°F6.7°C 68% 2.0 mph ESE3.2 kmh ESE 4.0 mph6.4 kmh 29.80 in1009.1 mb 0.00 in0.0 mm 0.00 in0.0 mm 0.01 in0.3 mm
01:40 PM 54.7°F12.6°C 45.0°F7.2°C 69% Calm Calm 3.0 mph4.8 kmh 29.80 in1009.1 mb 0.00 in0.0 mm 0.00 in0.0 mm 0.01 in0.3 mm
01:35 PM 54.4°F12.4°C 44.0°F6.7°C 69% 1.0 mph SE1.6 kmh SE 3.0 mph4.8 kmh 29.80 in1009.1 mb 0.00 in0.0 mm 0.00 in0.0 mm 0.01 in0.3 mm
01:30 PM 54.4°F12.4°C 45.0°F7.2°C 70% 2.0 mph E3.2 kmh E 3.0 mph4.8 kmh 29.80 in1009.1 mb 0.00 in0.0 mm 0.00 in0.0 mm 0.01 in0.3 mm
01:26 PM 54.4°F12.4°C 44.0°F6.7°C 69% Calm Calm 3.0 mph4.8 kmh 29.80 in1009.1 mb 0.00 in0.0 mm 0.00 in0.0 mm 0.01 in0.3 mm
01:20 PM 54.2°F12.3°C 44.0°F6.7°C 69% Calm Calm 5.0 mph8.0 kmh 29.80 in1009.1 mb 0.00 in0.0 mm 0.00 in0.0 mm 0.01 in0.3 mm
01:15 PM 54.0°F12.2°C 44.0°F6.7°C 68% 2.0 mph SE3.2 kmh SE 5.0 mph8.0 kmh 29.80 in1009.1 mb 0.00 in0.0 mm 0.00 in0.0 mm 0.01 in0.3 mm
01:11 PM 53.9°F12.2°C 43.0°F6.1°C 68% 3.0 mph SE4.8 kmh SE 5.0 mph8.0 kmh 29.80 in1009.1 mb 0.00 in0.0 mm 0.00 in0.0 mm 0.01 in0.3 mm
01:06 PM 53.8°F12.1°C 43.0°F6.1°C 68% 1.0 mph ESE1.6 kmh ESE 5.0 mph8.0 kmh 29.81 in1009.5 mb 0.00 in0.0 mm 0.00 in0.0 mm 0.01 in0.3 mm
01:01 PM 53.8°F12.1°C 43.0°F6.1°C 68% 2.0 mph SE3.2 kmh SE 5.0 mph8.0 kmh 29.82 in1009.8 mb 0.00 in0.0 mm 0.00 in0.0 mm 0.01 in0.3 mm
12:55 PM 53.7°F12.1°C 44.0°F6.7°C 69% 2.0 mph SE3.2 kmh SE 6.0 mph9.7 kmh 29.83 in1010.2 mb 0.00 in0.0 mm 0.00 in0.0 mm 0.01 in0.3 mm
12:50 PM 53.4°F11.9°C 43.0°F6.1°C 68% 2.0 mph ESE3.2 kmh ESE 7.0 mph11.3 kmh 29.83 in1010.2 mb 0.00 in0.0 mm 0.00 in0.0 mm 0.01 in0.3 mm
12:45 PM 53.2°F11.8°C 44.0°F6.7°C 70% 2.0 mph ESE3.2 kmh ESE 7.0 mph11.3 kmh 29.83 in1010.2 mb 0.00 in0.0 mm 0.00 in0.0 mm 0.01 in0.3 mm
12:41 PM 53.0°F11.7°C 43.0°F6.1°C 69% 4.0 mph SE6.4 kmh SE 6.0 mph9.7 kmh 29.84 in1010.5 mb 0.00 in0.0 mm 0.00 in0.0 mm 0.01 in0.3 mm
12:36 PM 52.9°F11.6°C 43.0°F6.1°C 70% 1.0 mph SSE1.6 kmh SSE 6.0 mph9.7 kmh 29.84 in1010.5 mb 0.00 in0.0 mm 0.00 in0.0 mm 0.01 in0.3 mm
12:31 PM 52.7°F11.5°C 43.0°F6.1°C 70% 5.0 mph SE8.0 kmh SE 10.0 mph16.1 kmh 29.84 in1010.5 mb 0.00 in0.0 mm 0.00 in0.0 mm 0.01 in0.3 mm
12:25 PM 52.5°F11.4°C 43.0°F6.1°C 70% 4.0 mph ESE6.4 kmh ESE 10.0 mph16.1 kmh 29.85 in1010.8 mb 0.00 in0.0 mm 0.00 in0.0 mm 0.01 in0.3 mm
12:20 PM 52.5°F11.4°C 43.0°F6.1°C 70% 8.0 mph SSE12.9 kmh SSE 9.0 mph14.5 kmh 29.84 in1010.5 mb 0.00 in0.0 mm 0.00 in0.0 mm 0.01 in0.3 mm
12:15 PM 52.4°F11.3°C 43.0°F6.1°C 70% 4.0 mph SE6.4 kmh SE 9.0 mph14.5 kmh 29.85 in1010.8 mb 0.00 in0.0 mm 0.00 in0.0 mm 0.01 in0.3 mm
12:10 PM 52.4°F11.3°C 43.0°F6.1°C 71% 1.0 mph SE1.6 kmh SE 9.0 mph14.5 kmh 29.85 in1010.8 mb 0.00 in0.0 mm 0.00 in0.0 mm 0.01 in0.3 mm
12:06 PM 52.3°F11.3°C 43.0°F6.1°C 71% 4.0 mph SW6.4 kmh SW 8.0 mph12.9 kmh 29.86 in1011.2 mb 0.00 in0.0 mm 0.00 in0.0 mm 0.01 in0.3 mm
12:01 PM 52.3°F11.3°C 43.0°F6.1°C 71% 3.0 mph SSE4.8 kmh SSE 8.0 mph12.9 kmh 29.86 in1011.2 mb 0.00 in0.0 mm 0.00 in0.0 mm 0.01 in0.3 mm
11:55 AM 52.3°F11.3°C 43.0°F6.1°C 71% 4.0 mph SSE6.4 kmh SSE 12.0 mph19.3 kmh 29.86 in1011.2 mb 0.00 in0.0 mm 0.00 in0.0 mm 0.01 in0.3 mm
11:50 AM 52.4°F11.3°C 43.0°F6.1°C 71% 1.0 mph E1.6 kmh E 12.0 mph19.3 kmh 29.87 in1011.5 mb 0.00 in0.0 mm 0.00 in0.0 mm 0.01 in0.3 mm
11:45 AM 52.3°F11.3°C 43.0°F6.1°C 71% 5.0 mph SE8.0 kmh SE 12.0 mph19.3 kmh 29.87 in1011.5 mb 0.00 in0.0 mm 0.00 in0.0 mm 0.01 in0.3 mm
11:40 AM 52.4°F11.3°C 43.0°F6.1°C 71% 3.0 mph SE4.8 kmh SE 9.0 mph14.5 kmh 29.88 in1011.9 mb 0.00 in0.0 mm 0.00 in0.0 mm 0.01 in0.3 mm
11:35 AM 52.3°F11.3°C 44.0°F6.7°C 72% 3.0 mph ESE4.8 kmh ESE 7.0 mph11.3 kmh 29.88 in1011.9 mb 0.00 in0.0 mm 0.00 in0.0 mm 0.01 in0.3 mm
11:31 AM 52.2°F11.2°C 43.0°F6.1°C 72% 5.0 mph SSE8.0 kmh SSE 7.0 mph11.3 kmh 29.88 in1011.9 mb 0.00 in0.0 mm 0.00 in0.0 mm 0.01 in0.3 mm
11:25 AM 52.0°F11.1°C 43.0°F6.1°C 72% 4.0 mph SE6.4 kmh SE 8.0 mph12.9 kmh 29.89 in1012.2 mb 0.00 in0.0 mm 0.00 in0.0 mm 0.01 in0.3 mm
11:20 AM 51.9°F11.1°C 43.0°F6.1°C 72% 3.0 mph ESE4.8 kmh ESE 8.0 mph12.9 kmh 29.90 in1012.5 mb 0.00 in0.0 mm 0.00 in0.0 mm 0.01 in0.3 mm
11:15 AM 51.8°F11.0°C 43.0°F6.1°C 73% 2.0 mph E3.2 kmh E 9.0 mph14.5 kmh 29.91 in1012.9 mb 0.00 in0.0 mm 0.00 in0.0 mm 0.01 in0.3 mm
11:10 AM 51.6°F10.9°C 43.0°F6.1°C 73% 4.0 mph SE6.4 kmh SE 9.0 mph14.5 kmh 29.91 in1012.9 mb 0.00 in0.0 mm 0.00 in0.0 mm 0.01 in0.3 mm
11:05 AM 51.5°F10.8°C 43.0°F6.1°C 74% 8.0 mph SW12.9 kmh SW 8.0 mph12.9 kmh 29.92 in1013.2 mb 0.00 in0.0 mm 0.00 in0.0 mm 0.01 in0.3 mm
11:00 AM 51.4°F10.8°C 43.0°F6.1°C 74% 2.0 mph SE3.2 kmh SE 8.0 mph12.9 kmh 29.92 in1013.2 mb 0.00 in0.0 mm 0.00 in0.0 mm 0.01 in0.3 mm
10:55 AM 51.4°F10.8°C 43.0°F6.1°C 74% 4.0 mph SE6.4 kmh SE 11.0 mph17.7 kmh 29.92 in1013.2 mb 0.00 in0.0 mm 0.00 in0.0 mm 0.01 in0.3 mm
10:50 AM 51.4°F10.8°C 43.0°F6.1°C 74% 3.0 mph SE4.8 kmh SE 11.0 mph17.7 kmh 29.92 in1013.2 mb 0.00 in0.0 mm 0.00 in0.0 mm 0.01 in0.3 mm
10:45 AM 51.4°F10.8°C 43.0°F6.1°C 74% 4.0 mph SE6.4 kmh SE 9.0 mph14.5 kmh 29.93 in1013.5 mb 0.00 in0.0 mm 0.00 in0.0 mm 0.01 in0.3 mm
10:40 AM 51.3°F10.7°C 43.0°F6.1°C 74% 7.0 mph SE11.3 kmh SE 9.0 mph14.5 kmh 29.93 in1013.5 mb 0.00 in0.0 mm 0.00 in0.0 mm 0.01 in0.3 mm
10:35 AM 51.2°F10.7°C 44.0°F6.7°C 75% 3.0 mph S4.8 kmh S 6.0 mph9.7 kmh 29.93 in1013.5 mb 0.00 in0.0 mm 0.00 in0.0 mm 0.01 in0.3 mm
10:30 AM 51.1°F10.6°C 43.0°F6.1°C 75% 4.0 mph SE6.4 kmh SE 7.0 mph11.3 kmh 29.93 in1013.5 mb 0.00 in0.0 mm 0.00 in0.0 mm 0.01 in0.3 mm
10:25 AM 51.0°F10.6°C 43.0°F6.1°C 75% 4.0 mph SW6.4 kmh SW 7.0 mph11.3 kmh 29.93 in1013.5 mb 0.00 in0.0 mm 0.00 in0.0 mm 0.01 in0.3 mm
10:20 AM 50.9°F10.5°C 43.0°F6.1°C 75% 4.0 mph SE6.4 kmh SE 7.0 mph11.3 kmh 29.93 in1013.5 mb 0.00 in0.0 mm 0.00 in0.0 mm 0.01 in0.3 mm
10:15 AM 50.9°F10.5°C 43.0°F6.1°C 75% 2.0 mph ESE3.2 kmh ESE 7.0 mph11.3 kmh 29.93 in1013.5 mb 0.00 in0.0 mm 0.00 in0.0 mm 0.01 in0.3 mm
10:10 AM 50.9°F10.5°C 43.0°F6.1°C 75% 2.0 mph S3.2 kmh S 7.0 mph11.3 kmh 29.94 in1013.9 mb 0.00 in0.0 mm 0.00 in0.0 mm 0.01 in0.3 mm
10:05 AM 50.9°F10.5°C 43.0°F6.1°C 75% 3.0 mph SE4.8 kmh SE 8.0 mph12.9 kmh 29.94 in1013.9 mb 0.00 in0.0 mm 0.00 in0.0 mm 0.01 in0.3 mm
10:00 AM 50.7°F10.4°C 43.0°F6.1°C 75% Calm Calm 8.0 mph12.9 kmh 29.95 in1014.2 mb 0.00 in0.0 mm 0.00 in0.0 mm 0.01 in0.3 mm
09:55 AM 50.5°F10.3°C 43.0°F6.1°C 76% 3.0 mph S4.8 kmh S 6.0 mph9.7 kmh 29.95 in1014.2 mb 0.00 in0.0 mm 0.00 in0.0 mm 0.01 in0.3 mm
09:50 AM 50.4°F10.2°C 43.0°F6.1°C 76% 2.0 mph SSE3.2 kmh SSE 6.0 mph9.7 kmh 29.94 in1013.9 mb 0.00 in0.0 mm 0.00 in0.0 mm 0.01 in0.3 mm
09:45 AM 50.3°F10.2°C 43.0°F6.1°C 77% 3.0 mph SSE4.8 kmh SSE 5.0 mph8.0 kmh 29.95 in1014.2 mb 0.00 in0.0 mm 0.00 in0.0 mm 0.01 in0.3 mm
09:40 AM 50.2°F10.1°C 43.0°F6.1°C 76% Calm Calm 6.0 mph9.7 kmh 29.95 in1014.2 mb 0.00 in0.0 mm 0.00 in0.0 mm 0.01 in0.3 mm
09:35 AM 50.1°F10.1°C 43.0°F6.1°C 77% 1.0 mph SE1.6 kmh SE 6.0 mph9.7 kmh 29.95 in1014.2 mb 0.00 in0.0 mm 0.00 in0.0 mm 0.01 in0.3 mm
09:30 AM 49.9°F9.9°C 43.0°F6.1°C 77% 1.0 mph ESE1.6 kmh ESE 6.0 mph9.7 kmh 29.95 in1014.2 mb 0.00 in0.0 mm 0.00 in0.0 mm 0.01 in0.3 mm
09:25 AM 49.8°F9.9°C 43.0°F6.1°C 77% Calm Calm 6.0 mph9.7 kmh 29.95 in1014.2 mb 0.00 in0.0 mm 0.00 in0.0 mm 0.01 in0.3 mm
09:20 AM 49.7°F9.8°C 43.0°F6.1°C 78% 4.0 mph SE6.4 kmh SE 6.0 mph9.7 kmh 29.94 in1013.9 mb 0.00 in0.0 mm 0.00 in0.0 mm 0.01 in0.3 mm
09:15 AM 49.7°F9.8°C 43.0°F6.1°C 78% 2.0 mph SE3.2 kmh SE 6.0 mph9.7 kmh 29.95 in1014.2 mb 0.00 in0.0 mm 0.00 in0.0 mm 0.01 in0.3 mm
09:10 AM 49.7°F9.8°C 43.0°F6.1°C 78% 2.0 mph SSE3.2 kmh SSE 5.0 mph8.0 kmh 29.96 in1014.6 mb 0.00 in0.0 mm 0.00 in0.0 mm 0.01 in0.3 mm
09:06 AM 49.7°F9.8°C 43.0°F6.1°C 78% 4.0 mph S6.4 kmh S 5.0 mph8.0 kmh 29.96 in1014.6 mb 0.00 in0.0 mm 0.00 in0.0 mm 0.01 in0.3 mm
09:00 AM 49.6°F9.8°C 43.0°F6.1°C 78% 3.0 mph SE4.8 kmh SE 5.0 mph8.0 kmh 29.95 in1014.2 mb 0.00 in0.0 mm 0.00 in0.0 mm 0.01 in0.3 mm
08:55 AM 49.6°F9.8°C 43.0°F6.1°C 78% 1.0 mph SE1.6 kmh SE 6.0 mph9.7 kmh 29.95 in1014.2 mb 0.00 in0.0 mm 0.00 in0.0 mm 0.01 in0.3 mm
08:50 AM 49.5°F9.7°C 43.0°F6.1°C 78% 1.0 mph ESE1.6 kmh ESE 8.0 mph12.9 kmh 29.96 in1014.6 mb 0.00 in0.0 mm 0.00 in0.0 mm 0.01 in0.3 mm
08:45 AM 49.5°F9.7°C 43.0°F6.1°C 78% Calm Calm 8.0 mph12.9 kmh 29.95 in1014.2 mb 0.00 in0.0 mm 0.00 in0.0 mm 0.01 in0.3 mm
08:40 AM 49.3°F9.6°C 43.0°F6.1°C 78% 4.0 mph SSE6.4 kmh SSE 6.0 mph9.7 kmh 29.96 in1014.6 mb 0.00 in0.0 mm 0.00 in0.0 mm 0.01 in0.3 mm
08:35 AM 49.2°F9.6°C 43.0°F6.1°C 79% 3.0 mph S4.8 kmh S 6.0 mph9.7 kmh 29.96 in1014.6 mb 0.00 in0.0 mm 0.00 in0.0 mm 0.01 in0.3 mm
08:30 AM 49.1°F9.5°C 43.0°F6.1°C 79% 3.0 mph SE4.8 kmh SE 4.0 mph6.4 kmh 29.97 in1014.9 mb 0.00 in0.0 mm 0.00 in0.0 mm 0.01 in0.3 mm
08:25 AM 49.0°F9.4°C 43.0°F6.1°C 79% 1.0 mph SE1.6 kmh SE 3.0 mph4.8 kmh 29.98 in1015.2 mb 0.00 in0.0 mm 0.00 in0.0 mm 0.01 in0.3 mm
08:20 AM 49.1°F9.5°C 43.0°F6.1°C 79% Calm Calm 5.0 mph8.0 kmh 29.98 in1015.2 mb 0.00 in0.0 mm 0.00 in0.0 mm 0.01 in0.3 mm
08:15 AM 49.1°F9.5°C 43.0°F6.1°C 79% 2.0 mph SE3.2 kmh SE 6.0 mph9.7 kmh 29.97 in1014.9 mb 0.00 in0.0 mm 0.00 in0.0 mm 0.01 in0.3 mm
08:10 AM 49.0°F9.4°C 43.0°F6.1°C 79% 3.0 mph SE4.8 kmh SE 6.0 mph9.7 kmh 29.97 in1014.9 mb 0.00 in0.0 mm 0.00 in0.0 mm 0.01 in0.3 mm
08:05 AM 49.0°F9.4°C 43.0°F6.1°C 79% 2.0 mph S3.2 kmh S 4.0 mph6.4 kmh 29.97 in1014.9 mb 0.00 in0.0 mm 0.00 in0.0 mm 0.01 in0.3 mm
08:00 AM 49.1°F9.5°C 43.0°F6.1°C 79% Calm Calm 3.0 mph4.8 kmh 29.96 in1014.6 mb 0.00 in0.0 mm 0.00 in0.0 mm 0.01 in0.3 mm
07:55 AM 49.2°F9.6°C 43.0°F6.1°C 79% 1.0 mph SE1.6 kmh SE 4.0 mph6.4 kmh 29.97 in1014.9 mb 0.00 in0.0 mm 0.00 in0.0 mm 0.01 in0.3 mm
07:50 AM 49.2°F9.6°C 43.0°F6.1°C 79% 2.0 mph SW3.2 kmh SW 4.0 mph6.4 kmh 29.97 in1014.9 mb 0.00 in0.0 mm 0.00 in0.0 mm 0.01 in0.3 mm
07:45 AM 49.3°F9.6°C 43.0°F6.1°C 79% 1.0 mph SSE1.6 kmh SSE 4.0 mph6.4 kmh 29.97 in1014.9 mb 0.00 in0.0 mm 0.00 in0.0 mm 0.01 in0.3 mm
07:40 AM 49.4°F9.7°C 43.0°F6.1°C 78% Calm Calm 5.0 mph8.0 kmh 29.97 in1014.9 mb 0.00 in0.0 mm 0.00 in0.0 mm 0.01 in0.3 mm
07:35 AM 49.4°F9.7°C 43.0°F6.1°C 79% 1.0 mph SE1.6 kmh SE 5.0 mph8.0 kmh 29.98 in1015.2 mb 0.00 in0.0 mm 0.00 in0.0 mm 0.01 in0.3 mm
07:30 AM 49.5°F9.7°C 43.0°F6.1°C 79% 3.0 mph S4.8 kmh S 5.0 mph8.0 kmh 30.00 in1015.9 mb 0.00 in0.0 mm 0.00 in0.0 mm 0.01 in0.3 mm
07:25 AM 49.6°F9.8°C 43.0°F6.1°C 79% 2.0 mph ESE3.2 kmh ESE 5.0 mph8.0 kmh 30.00 in1015.9 mb 0.00 in0.0 mm 0.00 in0.0 mm 0.01 in0.3 mm
07:20 AM 49.6°F9.8°C 43.0°F6.1°C 79% 1.0 mph SE1.6 kmh SE 5.0 mph8.0 kmh 29.99 in1015.6 mb 0.00 in0.0 mm 0.00 in0.0 mm 0.01 in0.3 mm
07:15 AM 49.6°F9.8°C 43.0°F6.1°C 79% 3.0 mph SE4.8 kmh SE 6.0 mph9.7 kmh 29.98 in1015.2 mb 0.00 in0.0 mm 0.00 in0.0 mm 0.01 in0.3 mm
07:10 AM 49.5°F9.7°C 43.0°F6.1°C 79% 3.0 mph SE4.8 kmh SE 6.0 mph9.7 kmh 29.99 in1015.6 mb 0.00 in0.0 mm 0.00 in0.0 mm 0.01 in0.3 mm
07:05 AM 49.4°F9.7°C 44.0°F6.7°C 80% Calm Calm 6.0 mph9.7 kmh 29.99 in1015.6 mb 0.00 in0.0 mm 0.00 in0.0 mm 0.01 in0.3 mm
07:00 AM 49.3°F9.6°C 43.0°F6.1°C 80% 2.0 mph SSE3.2 kmh SSE 6.0 mph9.7 kmh 29.99 in1015.6 mb 0.00 in0.0 mm 0.00 in0.0 mm 0.01 in0.3 mm
06:56 AM 49.3°F9.6°C 43.0°F6.1°C 80% 3.0 mph SE4.8 kmh SE 6.0 mph9.7 kmh 29.99 in1015.6 mb 0.00 in0.0 mm 0.00 in0.0 mm 0.01 in0.3 mm
06:50 AM 49.1°F9.5°C 44.0°F6.7°C 81% 4.0 mph SSE6.4 kmh SSE 4.0 mph6.4 kmh 29.99 in1015.6 mb 0.00 in0.0 mm 0.00 in0.0 mm 0.01 in0.3 mm
06:45 AM 49.1°F9.5°C 44.0°F6.7°C 81% 2.0 mph SE3.2 kmh SE 4.0 mph6.4 kmh 29.99 in1015.6 mb 0.00 in0.0 mm 0.00 in0.0 mm 0.01 in0.3 mm
06:40 AM 49.0°F9.4°C 43.0°F6.1°C 81% 4.0 mph S6.4 kmh S 5.0 mph8.0 kmh 29.98 in1015.2 mb 0.00 in0.0 mm 0.00 in0.0 mm 0.01 in0.3 mm
06:35 AM 49.0°F9.4°C 44.0°F6.7°C 82% 2.0 mph SSW3.2 kmh SSW 5.0 mph8.0 kmh 29.99 in1015.6 mb 0.00 in0.0 mm 0.00 in0.0 mm 0.01 in0.3 mm
06:30 AM 49.0°F9.4°C 44.0°F6.7°C 82% 1.0 mph SE1.6 kmh SE 6.0 mph9.7 kmh 29.99 in1015.6 mb 0.00 in0.0 mm 0.00 in0.0 mm 0.01 in0.3 mm
06:25 AM 49.0°F9.4°C 43.0°F6.1°C 81% 1.0 mph SE1.6 kmh SE 6.0 mph9.7 kmh 30.00 in1015.9 mb 0.00 in0.0 mm 0.00 in0.0 mm 0.01 in0.3 mm
06:20 AM 48.9°F9.4°C 44.0°F6.7°C 82% 3.0 mph SSE4.8 kmh SSE 6.0 mph9.7 kmh 30.00 in1015.9 mb 0.00 in0.0 mm 0.00 in0.0 mm 0.01 in0.3 mm
06:15 AM 48.9°F9.4°C 44.0°F6.7°C 82% 3.0 mph SSE4.8 kmh SSE 6.0 mph9.7 kmh 30.00 in1015.9 mb 0.00 in0.0 mm 0.00 in0.0 mm 0.01 in0.3 mm
06:10 AM 48.8°F9.3°C 44.0°F6.7°C 82% 1.0 mph SE1.6 kmh SE -- 30.00 in1015.9 mb 0.00 in0.0 mm 0.00 in0.0 mm 0.01 in0.3 mm
06:05 AM 48.8°F9.3°C 44.0°F6.7°C 82% 2.0 mph S3.2 kmh S 4.0 mph6.4 kmh 30.00 in1015.9 mb 0.00 in0.0 mm 0.00 in0.0 mm 0.01 in0.3 mm
06:00 AM 48.7°F9.3°C 44.0°F6.7°C 83% 2.0 mph SE3.2 kmh SE 7.0 mph11.3 kmh 30.00 in1015.9 mb 0.00 in0.0 mm 0.00 in0.0 mm 0.01 in0.3 mm
05:55 AM 48.7°F9.3°C 44.0°F6.7°C 83% 2.0 mph SE3.2 kmh SE 7.0 mph11.3 kmh 30.01 in1016.3 mb 0.00 in0.0 mm 0.00 in0.0 mm 0.01 in0.3 mm
05:50 AM 48.5°F9.2°C 44.0°F6.7°C 83% 3.0 mph SSE4.8 kmh SSE 5.0 mph8.0 kmh 30.01 in1016.3 mb 0.00 in0.0 mm 0.00 in0.0 mm 0.01 in0.3 mm
05:45 AM 48.5°F9.2°C 44.0°F6.7°C 83% 2.0 mph SSE3.2 kmh SSE 6.0 mph9.7 kmh 30.01 in1016.3 mb 0.00 in0.0 mm 0.00 in0.0 mm 0.01 in0.3 mm
05:40 AM 48.3°F9.1°C 44.0°F6.7°C 84% 5.0 mph SSW8.0 kmh SSW 6.0 mph9.7 kmh 30.01 in1016.3 mb 0.01 in0.3 mm 0.00 in0.0 mm 0.01 in0.3 mm
05:35 AM 48.1°F8.9°C 44.0°F6.7°C 84% 2.0 mph SSE3.2 kmh SSE 6.0 mph9.7 kmh 30.02 in1016.6 mb 0.01 in0.3 mm 0.00 in0.0 mm 0.01 in0.3 mm
05:30 AM 48.0°F8.9°C 44.0°F6.7°C 85% 2.0 mph SE3.2 kmh SE 6.0 mph9.7 kmh 30.02 in1016.6 mb 0.01 in0.3 mm 0.00 in0.0 mm 0.01 in0.3 mm
05:25 AM 47.9°F8.8°C 44.0°F6.7°C 85% 2.0 mph SE3.2 kmh SE 6.0 mph9.7 kmh 30.02 in1016.6 mb 0.01 in0.3 mm 0.00 in0.0 mm 0.01 in0.3 mm
05:20 AM 47.7°F8.7°C 43.0°F6.1°C 85% 2.0 mph SSE3.2 kmh SSE 5.0 mph8.0 kmh 30.02 in1016.6 mb 0.01 in0.3 mm 0.00 in0.0 mm 0.01 in0.3 mm
05:15 AM 47.6°F8.7°C 44.0°F6.7°C 86% 2.0 mph SE3.2 kmh SE 7.0 mph11.3 kmh 30.02 in1016.6 mb 0.01 in0.3 mm 0.00 in0.0 mm 0.01 in0.3 mm
05:10 AM 47.6°F8.7°C 43.0°F6.1°C 85% 2.0 mph SE3.2 kmh SE 7.0 mph11.3 kmh 30.02 in1016.6 mb 0.01 in0.3 mm 0.00 in0.0 mm 0.01 in0.3 mm
05:05 AM 47.5°F8.6°C 43.0°F6.1°C 85% 2.0 mph S3.2 kmh S 5.0 mph8.0 kmh 30.03 in1016.9 mb 0.01 in0.3 mm 0.00 in0.0 mm 0.01 in0.3 mm
05:01 AM 47.6°F8.7°C 44.0°F6.7°C 86% 2.0 mph SE3.2 kmh SE 4.0 mph6.4 kmh 30.03 in1016.9 mb 0.01 in0.3 mm 0.00 in0.0 mm 0.01 in0.3 mm
04:55 AM 47.7°F8.7°C 43.0°F6.1°C 85% 2.0 mph SSE3.2 kmh SSE 4.0 mph6.4 kmh 30.03 in1016.9 mb 0.01 in0.3 mm 0.00 in0.0 mm 0.01 in0.3 mm
04:50 AM 47.8°F8.8°C 43.0°F6.1°C 84% 1.0 mph SE1.6 kmh SE 4.0 mph6.4 kmh 30.03 in1016.9 mb 0.01 in0.3 mm 0.12 in3.0 mm 0.01 in0.3 mm
04:45 AM 47.9°F8.8°C 43.0°F6.1°C 84% 1.0 mph SSE1.6 kmh SSE 3.0 mph4.8 kmh 30.04 in1017.3 mb 0.00 in0.0 mm 0.00 in0.0 mm 0.00 in0.0 mm
04:40 AM 48.1°F8.9°C 43.0°F6.1°C 83% 1.0 mph SW1.6 kmh SW 6.0 mph9.7 kmh 30.04 in1017.3 mb 0.00 in0.0 mm 0.00 in0.0 mm 0.00 in0.0 mm
04:35 AM 48.3°F9.1°C 43.0°F6.1°C 83% 1.0 mph SE1.6 kmh SE 7.0 mph11.3 kmh 30.04 in1017.3 mb 0.00 in0.0 mm 0.00 in0.0 mm 0.00 in0.0 mm
04:30 AM 48.3°F9.1°C 43.0°F6.1°C 82% 3.0 mph SSE4.8 kmh SSE 6.0 mph9.7 kmh 30.03 in1016.9 mb 0.00 in0.0 mm 0.00 in0.0 mm 0.00 in0.0 mm
04:25 AM 48.5°F9.2°C 43.0°F6.1°C 81% 4.0 mph SE6.4 kmh SE 6.0 mph9.7 kmh 30.04 in1017.3 mb 0.00 in0.0 mm 0.00 in0.0 mm 0.00 in0.0 mm
04:20 AM 48.5°F9.2°C 43.0°F6.1°C 80% 2.0 mph SSE3.2 kmh SSE 6.0 mph9.7 kmh 30.04 in1017.3 mb 0.00 in0.0 mm 0.00 in0.0 mm 0.00 in0.0 mm
04:16 AM 48.6°F9.2°C 43.0°F6.1°C 81% 2.0 mph SW3.2 kmh SW 6.0 mph9.7 kmh 30.04 in1017.3 mb 0.00 in0.0 mm 0.00 in0.0 mm 0.00 in0.0 mm
04:10 AM 48.8°F9.3°C 43.0°F6.1°C 80% 2.0 mph SSE3.2 kmh SSE 7.0 mph11.3 kmh 30.04 in1017.3 mb 0.00 in0.0 mm 0.00 in0.0 mm 0.00 in0.0 mm
04:05 AM 48.7°F9.3°C 43.0°F6.1°C 80% 2.0 mph S3.2 kmh S 7.0 mph11.3 kmh 30.04 in1017.3 mb 0.00 in0.0 mm 0.00 in0.0 mm 0.00 in0.0 mm
04:00 AM 48.8°F9.3°C 43.0°F6.1°C 79% 1.0 mph SSE1.6 kmh SSE 5.0 mph8.0 kmh 30.05 in1017.6 mb 0.00 in0.0 mm 0.00 in0.0 mm 0.00 in0.0 mm
03:55 AM 48.8°F9.3°C 42.0°F5.6°C 78% 3.0 mph S4.8 kmh S 5.0 mph8.0 kmh 30.04 in1017.3 mb 0.00 in0.0 mm 0.00 in0.0 mm 0.00 in0.0 mm
03:50 AM 48.8°F9.3°C 42.0°F5.6°C 78% 3.0 mph SSE4.8 kmh SSE 6.0 mph9.7 kmh 30.04 in1017.3 mb 0.00 in0.0 mm 0.00 in0.0 mm 0.00 in0.0 mm
03:45 AM 48.9°F9.4°C 42.0°F5.6°C 78% 2.0 mph S3.2 kmh S 6.0 mph9.7 kmh 30.04 in1017.3 mb 0.00 in0.0 mm 0.00 in0.0 mm 0.00 in0.0 mm
03:40 AM 48.8°F9.3°C 42.0°F5.6°C 78% 4.0 mph SSE6.4 kmh SSE 5.0 mph8.0 kmh 30.04 in1017.3 mb 0.00 in0.0 mm 0.00 in0.0 mm 0.00 in0.0 mm
03:35 AM 48.8°F9.3°C 43.0°F6.1°C 79% 1.0 mph SSW1.6 kmh SSW 6.0 mph9.7 kmh 30.05 in1017.6 mb 0.00 in0.0 mm 0.00 in0.0 mm 0.00 in0.0 mm
03:30 AM 48.8°F9.3°C 42.0°F5.6°C 78% 3.0 mph SE4.8 kmh SE 6.0 mph9.7 kmh 30.05 in1017.6 mb 0.00 in0.0 mm 0.00 in0.0 mm 0.00 in0.0 mm
03:25 AM 48.8°F9.3°C 42.0°F5.6°C 78% 3.0 mph S4.8 kmh S 6.0 mph9.7 kmh 30.05 in1017.6 mb 0.00 in0.0 mm 0.00 in0.0 mm 0.00 in0.0 mm
03:20 AM 48.9°F9.4°C 42.0°F5.6°C 78% 3.0 mph SE4.8 kmh SE 4.0 mph6.4 kmh 30.05 in1017.6 mb 0.00 in0.0 mm 0.00 in0.0 mm 0.00 in0.0 mm
03:15 AM 48.9°F9.4°C 42.0°F5.6°C 78% 2.0 mph SE3.2 kmh SE 4.0 mph6.4 kmh 30.05 in1017.6 mb 0.00 in0.0 mm 0.00 in0.0 mm 0.00 in0.0 mm
03:10 AM 49.0°F9.4°C 42.0°F5.6°C 78% 1.0 mph SSE1.6 kmh SSE 4.0 mph6.4 kmh 30.05 in1017.6 mb 0.00 in0.0 mm 0.00 in0.0 mm 0.00 in0.0 mm
03:05 AM 49.0°F9.4°C 42.0°F5.6°C 78% 1.0 mph SE1.6 kmh SE 4.0 mph6.4 kmh 30.06 in1017.9 mb 0.00 in0.0 mm 0.00 in0.0 mm 0.00 in0.0 mm
03:00 AM 49.0°F9.4°C 42.0°F5.6°C 78% 3.0 mph S4.8 kmh S 4.0 mph6.4 kmh 30.06 in1017.9 mb 0.00 in0.0 mm 0.00 in0.0 mm 0.00 in0.0 mm
02:55 AM 49.0°F9.4°C 42.0°F5.6°C 77% 2.0 mph SE3.2 kmh SE 5.0 mph8.0 kmh 30.06 in1017.9 mb 0.00 in0.0 mm 0.00 in0.0 mm 0.00 in0.0 mm
02:50 AM 49.0°F9.4°C 42.0°F5.6°C 77% 1.0 mph SE1.6 kmh SE 5.0 mph8.0 kmh 30.06 in1017.9 mb 0.00 in0.0 mm 0.00 in0.0 mm 0.00 in0.0 mm
02:45 AM 49.0°F9.4°C 42.0°F5.6°C 78% 2.0 mph SE3.2 kmh SE 5.0 mph8.0 kmh 30.06 in1017.9 mb 0.00 in0.0 mm 0.00 in0.0 mm 0.00 in0.0 mm
02:40 AM 48.9°F9.4°C 42.0°F5.6°C 78% 3.0 mph SE4.8 kmh SE 5.0 mph8.0 kmh 30.06 in1017.9 mb 0.00 in0.0 mm 0.00 in0.0 mm 0.00 in0.0 mm
02:35 AM 48.8°F9.3°C 42.0°F5.6°C 78% 3.0 mph SE4.8 kmh SE 4.0 mph6.4 kmh 30.06 in1017.9 mb 0.00 in0.0 mm 0.00 in0.0 mm 0.00 in0.0 mm
02:30 AM 48.8°F9.3°C 43.0°F6.1°C 79% 1.0 mph SSE1.6 kmh SSE 3.0 mph4.8 kmh 30.06 in1017.9 mb 0.00 in0.0 mm 0.00 in0.0 mm 0.00 in0.0 mm
02:25 AM 48.8°F9.3°C 42.0°F5.6°C 78% 1.0 mph S1.6 kmh S 4.0 mph6.4 kmh 30.07 in1018.3 mb 0.00 in0.0 mm 0.00 in0.0 mm 0.00 in0.0 mm
02:20 AM 48.8°F9.3°C 42.0°F5.6°C 78% 3.0 mph SSE4.8 kmh SSE 4.0 mph6.4 kmh 30.07 in1018.3 mb 0.00 in0.0 mm 0.00 in0.0 mm 0.00 in0.0 mm
02:15 AM 48.8°F9.3°C 42.0°F5.6°C 78% 2.0 mph SSE3.2 kmh SSE 4.0 mph6.4 kmh 30.07 in1018.3 mb 0.00 in0.0 mm 0.00 in0.0 mm 0.00 in0.0 mm
02:10 AM 48.6°F9.2°C 42.0°F5.6°C 79% 1.0 mph SSE1.6 kmh SSE 5.0 mph8.0 kmh 30.06 in1017.9 mb 0.00 in0.0 mm 0.00 in0.0 mm 0.00 in0.0 mm
02:05 AM 48.3°F9.1°C 42.0°F5.6°C 80% 1.0 mph E1.6 kmh E 5.0 mph8.0 kmh 30.07 in1018.3 mb 0.00 in0.0 mm 0.00 in0.0 mm 0.00 in0.0 mm
02:00 AM 47.8°F8.8°C 42.0°F5.6°C 81% 1.0 mph SE1.6 kmh SE 3.0 mph4.8 kmh 30.07 in1018.3 mb 0.00 in0.0 mm 0.00 in0.0 mm 0.00 in0.0 mm
01:55 AM 47.3°F8.5°C 42.0°F5.6°C 82% 1.0 mph SE1.6 kmh SE 3.0 mph4.8 kmh 30.07 in1018.3 mb 0.00 in0.0 mm 0.00 in0.0 mm 0.00 in0.0 mm
01:50 AM 46.8°F8.2°C 42.0°F5.6°C 84% 1.0 mph SE1.6 kmh SE 2.0 mph3.2 kmh 30.08 in1018.6 mb 0.00 in0.0 mm 0.00 in0.0 mm 0.00 in0.0 mm
01:45 AM 46.6°F8.1°C 42.0°F5.6°C 84% Calm Calm -- 30.08 in1018.6 mb 0.00 in0.0 mm 0.00 in0.0 mm 0.00 in0.0 mm
01:40 AM 46.5°F8.1°C 42.0°F5.6°C 84% Calm Calm -- 30.08 in1018.6 mb 0.00 in0.0 mm 0.00 in0.0 mm 0.00 in0.0 mm
01:35 AM 46.4°F8.0°C 42.0°F5.6°C 84% Calm Calm -- 30.07 in1018.3 mb 0.00 in0.0 mm 0.00 in0.0 mm 0.00 in0.0 mm
01:30 AM 46.5°F8.1°C 42.0°F5.6°C 84% Calm Calm -- 30.07 in1018.3 mb 0.00 in0.0 mm 0.00 in0.0 mm 0.00 in0.0 mm
01:25 AM 46.8°F8.2°C 42.0°F5.6°C 84% Calm Calm -- 30.07 in1018.3 mb 0.00 in0.0 mm 0.00 in0.0 mm 0.00 in0.0 mm
01:20 AM 46.8°F8.2°C 42.0°F5.6°C 83% Calm Calm -- 30.07 in1018.3 mb 0.00 in0.0 mm 0.00 in0.0 mm 0.00 in0.0 mm
01:15 AM 46.7°F8.2°C 42.0°F5.6°C 83% Calm Calm -- 30.07 in1018.3 mb 0.00 in0.0 mm 0.00 in0.0 mm 0.00 in0.0 mm
01:10 AM 46.7°F8.2°C 42.0°F5.6°C 83% Calm Calm -- 30.07 in1018.3 mb 0.00 in0.0 mm 0.00 in0.0 mm 0.00 in0.0 mm
01:05 AM 46.5°F8.1°C 42.0°F5.6°C 84% Calm Calm -- 30.07 in1018.3 mb 0.00 in0.0 mm 0.00 in0.0 mm 0.00 in0.0 mm
01:00 AM 46.5°F8.1°C 42.0°F5.6°C 84% Calm Calm -- 30.07 in1018.3 mb 0.00 in0.0 mm 0.00 in0.0 mm 0.00 in0.0 mm
12:55 AM 46.5°F8.1°C 42.0°F5.6°C 84% Calm Calm -- 30.07 in1018.3 mb 0.00 in0.0 mm 0.00 in0.0 mm 0.00 in0.0 mm
12:50 AM 46.5°F8.1°C 42.0°F5.6°C 83% Calm Calm -- 30.08 in1018.6 mb 0.00 in0.0 mm 0.00 in0.0 mm 0.00 in0.0 mm
12:45 AM 46.7°F8.2°C 42.0°F5.6°C 83% Calm Calm -- 30.08 in1018.6 mb 0.00 in0.0 mm 0.00 in0.0 mm 0.00 in0.0 mm
12:40 AM 46.7°F8.2°C 42.0°F5.6°C 83% Calm Calm -- 30.08 in1018.6 mb 0.00 in0.0 mm 0.00 in0.0 mm 0.00 in0.0 mm
12:35 AM 46.8°F8.2°C 42.0°F5.6°C 83% Calm Calm -- 30.09 in1019.0 mb 0.00 in0.0 mm 0.00 in0.0 mm 0.00 in0.0 mm
12:30 AM 46.8°F8.2°C 42.0°F5.6°C 83% Calm Calm -- 30.09 in1019.0 mb 0.00 in0.0 mm 0.00 in0.0 mm 0.00 in0.0 mm
12:25 AM 46.8°F8.2°C 42.0°F5.6°C 83% Calm Calm -- 30.10 in1019.3 mb 0.00 in0.0 mm 0.00 in0.0 mm 0.00 in0.0 mm
12:20 AM 47.0°F8.3°C 42.0°F5.6°C 83% Calm Calm 1.0 mph1.6 kmh 30.10 in1019.3 mb 0.00 in0.0 mm 0.00 in0.0 mm 0.00 in0.0 mm
12:15 AM 47.0°F8.3°C 42.0°F5.6°C 83% Calm Calm 1.0 mph1.6 kmh 30.10 in1019.3 mb 0.00 in0.0 mm 0.00 in0.0 mm 0.00 in0.0 mm
12:10 AM 47.1°F8.4°C 42.0°F5.6°C 83% Calm Calm 1.0 mph1.6 kmh 30.10 in1019.3 mb 0.00 in0.0 mm 0.00 in0.0 mm 0.00 in0.0 mm
12:05 AM 47.2°F8.4°C 42.0°F5.6°C 83% Calm Calm 3.0 mph4.8 kmh 30.10 in1019.3 mb 0.00 in0.0 mm 0.00 in0.0 mm 0.00 in0.0 mm
12:00 AM 47.1°F8.4°C 42.0°F5.6°C 83% Calm Calm 3.0 mph4.8 kmh 30.10 in1019.3 mb 0.00 in0.0 mm 0.00 in0.0 mm 0.00 in0.0 mm